Olympus — WDF3956 — position and weather

sailwx.info

Track history (hours):
 
Tides and Currents Weather Stations Pressure Air Temp Water Temp Dewpoint Dewpoint Depression Visibility Wind Speed Wind Dir Waves Ship Positions

Olympus

Owner: Etsell, Richard W, Anacortes, WA. More information available from US FCC via Universal Licensing System and Coast Guard Vessel Documentation Center.

Last reported at 2018-Jul-08 21:54 UTC. Time now 2018-Jul-18 02:38 UTC.
Position N 40°43' W 073°59'.
Warning: this ship's position is 9 days out of date.

Length 26 m.

Type: Pleasure craft. MMSI: 367446080.

Date/timePositionNaut miles runAvg speedWind from/ knotsBaromVisibWave heightAir tempDewpointWater temp
2018-Jul-08 21:54N 40°43' W 073°59'2 5.8
2018-Jul-08 21:30N 40°44' W 074°01'  
2018-Jul-05 03:22N 40°43' W 074°01'2 4.4
2018-Jul-05 03:00N 40°42' W 074°01'1 1.1
2018-Jul-05 02:27N 40°41' W 074°02'3 6.9
2018-Jul-05 02:00N 40°43' W 073°58'0 0.4
2018-Jul-05 01:30N 40°43' W 073°58'0 0.1
2018-Jul-05 01:00N 40°43' W 073°58'0 0.1
2018-Jul-05 00:28N 40°43' W 073°58'0 0.9
2018-Jul-04 23:59N 40°42' W 073°59'2 3.9
2018-Jul-04 23:30N 40°42' W 074°01'1 0.0
2018-Jul-03 21:24N 40°43' W 074°01'2 6.0
2018-Jul-03 21:00N 40°43' W 073°58'  
2018-Jun-30 06:06N 41°11' W 072°35'1 8.8
2018-Jun-30 06:00N 41°11' W 072°34'5 9.2
2018-Jun-30 05:29N 41°12' W 072°27'  
Track history (hours):
 
Tides and Currents Weather Stations Pressure Air Temp Water Temp Dewpoint Dewpoint Depression Visibility Wind Speed Wind Dir Waves Ship Positions

Olympus

Owner: Etsell, Richard W, Anacortes, WA. More information available from US FCC via Universal Licensing System and Coast Guard Vessel Documentation Center.

Last reported at 2018-Jul-08 21:54 UTC. Time now 2018-Jul-18 02:38 UTC.
Position N 40°43' W 073°59'.
Warning: this ship's position is 9 days out of date.

Length 26 m.

Type: Pleasure craft. MMSI: 367446080.

Date/timePositionNaut miles runAvg speedWind from/ knotsBaromVisibWave heightAir tempDewpointWater temp
2018-Jul-08 21:54N 40°43' W 073°59'2 5.8
2018-Jul-08 21:30N 40°44' W 074°01'  
2018-Jul-05 03:22N 40°43' W 074°01'2 4.4
2018-Jul-05 03:00N 40°42' W 074°01'1 1.1
2018-Jul-05 02:27N 40°41' W 074°02'3 6.9
2018-Jul-05 02:00N 40°43' W 073°58'0 0.4
2018-Jul-05 01:30N 40°43' W 073°58'0 0.1
2018-Jul-05 01:00N 40°43' W 073°58'0 0.1
2018-Jul-05 00:28N 40°43' W 073°58'0 0.9
2018-Jul-04 23:59N 40°42' W 073°59'2 3.9
2018-Jul-04 23:30N 40°42' W 074°01'1 0.0
2018-Jul-03 21:24N 40°43' W 074°01'2 6.0
2018-Jul-03 21:00N 40°43' W 073°58'  
2018-Jun-30 06:06N 41°11' W 072°35'1 8.8
2018-Jun-30 06:00N 41°11' W 072°34'5 9.2
2018-Jun-30 05:29N 41°12' W 072°27'  

Dump ship's entire track history